sensor_id;sensor_type;location;lat;lon;timestamp;pressure;altitude;pressure_sealevel;temperature;humidity
77077;BME280;66003;52.286;104.306;2024-03-08T00:00:29;96531.63;;;-8.09;35.94
77077;BME280;66003;52.286;104.306;2024-03-08T00:02:58;96533.78;;;-7.40;35.43
77077;BME280;66003;52.286;104.306;2024-03-08T00:05:24;96540.06;;;-6.83;34.12
77077;BME280;66003;52.286;104.306;2024-03-08T00:07:50;96543.00;;;-6.22;32.86
77077;BME280;66003;52.286;104.306;2024-03-08T00:10:17;96540.88;;;-5.57;32.44
77077;BME280;66003;52.286;104.306;2024-03-08T00:12:44;96540.28;;;-4.98;31.37
77077;BME280;66003;52.286;104.306;2024-03-08T00:15:13;96545.41;;;-4.36;30.85
77077;BME280;66003;52.286;104.306;2024-03-08T00:17:41;96544.66;;;-3.84;30.08
77077;BME280;66003;52.286;104.306;2024-03-08T00:20:08;96536.28;;;-3.34;29.81
77077;BME280;66003;52.286;104.306;2024-03-08T00:22:35;96541.44;;;-2.92;28.87
77077;BME280;66003;52.286;104.306;2024-03-08T00:25:02;96544.94;;;-2.52;28.03
77077;BME280;66003;52.286;104.306;2024-03-08T00:27:30;96554.13;;;-1.98;27.27
77077;BME280;66003;52.286;104.306;2024-03-08T00:29:57;96545.00;;;-1.40;27.19
77077;BME280;66003;52.286;104.306;2024-03-08T00:32:24;96552.13;;;-0.47;26.23
77077;BME280;66003;52.286;104.306;2024-03-08T00:34:51;96556.91;;;0.32;24.82
77077;BME280;66003;52.286;104.306;2024-03-08T00:37:21;96555.53;;;0.93;25.06
77077;BME280;66003;52.286;104.306;2024-03-08T00:39:51;96554.38;;;1.79;24.53
77077;BME280;66003;52.286;104.306;2024-03-08T00:42:19;96557.97;;;2.50;23.50
77077;BME280;66003;52.286;104.306;2024-03-08T00:44:47;96560.91;;;2.84;21.57
77077;BME280;66003;52.286;104.306;2024-03-08T00:47:14;96561.13;;;3.08;22.45
77077;BME280;66003;52.286;104.306;2024-03-08T00:49:41;96563.19;;;3.57;22.96
77077;BME280;66003;52.286;104.306;2024-03-08T00:52:08;96570.88;;;3.73;20.88
77077;BME280;66003;52.286;104.306;2024-03-08T00:54:35;96567.97;;;4.14;21.72
77077;BME280;66003;52.286;104.306;2024-03-08T00:57:04;96566.75;;;4.74;21.10
77077;BME280;66003;52.286;104.306;2024-03-08T00:59:32;96570.84;;;4.67;20.45
77077;BME280;66003;52.286;104.306;2024-03-08T01:02:00;96572.81;;;4.90;19.53
77077;BME280;66003;52.286;104.306;2024-03-08T01:04:27;96578.53;;;4.73;19.38
77077;BME280;66003;52.286;104.306;2024-03-08T01:06:58;96582.94;;;4.98;20.89
77077;BME280;66003;52.286;104.306;2024-03-08T01:09:25;96570.72;;;5.40;19.25
77077;BME280;66003;52.286;104.306;2024-03-08T01:11:53;96569.44;;;6.03;19.98
77077;BME280;66003;52.286;104.306;2024-03-08T01:14:23;96583.25;;;6.53;18.22
77077;BME280;66003;52.286;104.306;2024-03-08T01:16:51;96579.63;;;7.28;17.24
77077;BME280;66003;52.286;104.306;2024-03-08T01:19:17;96580.69;;;7.87;17.02
77077;BME280;66003;52.286;104.306;2024-03-08T01:21:44;96590.78;;;8.80;17.74
77077;BME280;66003;52.286;104.306;2024-03-08T01:24:10;96591.31;;;9.13;17.36
77077;BME280;66003;52.286;104.306;2024-03-08T01:26:36;96591.63;;;9.12;16.21
77077;BME280;66003;52.286;104.306;2024-03-08T01:29:03;96594.19;;;9.79;16.14
77077;BME280;66003;52.286;104.306;2024-03-08T01:31:33;96591.34;;;10.49;14.71
77077;BME280;66003;52.286;104.306;2024-03-08T01:33:59;96594.69;;;11.07;15.13
77077;BME280;66003;52.286;104.306;2024-03-08T01:36:25;96596.69;;;11.61;15.68
77077;BME280;66003;52.286;104.306;2024-03-08T01:38:52;96598.97;;;12.18;15.53
77077;BME280;66003;52.286;104.306;2024-03-08T01:41:19;96600.06;;;12.46;14.09
77077;BME280;66003;52.286;104.306;2024-03-08T01:43:46;96599.44;;;12.91;13.07
77077;BME280;66003;52.286;104.306;2024-03-08T01:46:13;96595.41;;;13.75;12.91
77077;BME280;66003;52.286;104.306;2024-03-08T01:48:41;96609.22;;;13.82;13.17
77077;BME280;66003;52.286;104.306;2024-03-08T01:51:08;96613.28;;;14.01;13.43
77077;BME280;66003;52.286;104.306;2024-03-08T01:53:35;96614.34;;;14.45;14.47
77077;BME280;66003;52.286;104.306;2024-03-08T01:56:01;96606.41;;;14.52;14.04
77077;BME280;66003;52.286;104.306;2024-03-08T01:58:32;96608.25;;;14.23;12.61
77077;BME280;66003;52.286;104.306;2024-03-08T02:00:59;96610.66;;;14.77;12.61
77077;BME280;66003;52.286;104.306;2024-03-08T02:03:26;96616.47;;;15.31;13.03
77077;BME280;66003;52.286;104.306;2024-03-08T02:05:53;96608.06;;;15.37;12.32
77077;BME280;66003;52.286;104.306;2024-03-08T02:08:20;96612.50;;;16.00;12.79
77077;BME280;66003;52.286;104.306;2024-03-08T02:10:49;96619.66;;;16.40;11.67
77077;BME280;66003;52.286;104.306;2024-03-08T02:13:16;96613.88;;;16.10;11.63
77077;BME280;66003;52.286;104.306;2024-03-08T02:15:56;96615.78;;;16.25;12.25
77077;BME280;66003;52.286;104.306;2024-03-08T02:18:44;96620.03;;;16.23;11.36
77077;BME280;66003;52.286;104.306;2024-03-08T02:21:11;96619.13;;;16.50;12.00
77077;BME280;66003;52.286;104.306;2024-03-08T02:23:36;96620.38;;;17.07;10.81
77077;BME280;66003;52.286;104.306;2024-03-08T02:26:03;96634.38;;;16.20;11.42
77077;BME280;66003;52.286;104.306;2024-03-08T02:28:31;96627.50;;;15.94;11.68
77077;BME280;66003;52.286;104.306;2024-03-08T02:31:00;96635.44;;;15.99;11.64
77077;BME280;66003;52.286;104.306;2024-03-08T02:33:27;96630.25;;;16.10;12.74
77077;BME280;66003;52.286;104.306;2024-03-08T02:35:54;96634.72;;;15.87;12.18
77077;BME280;66003;52.286;104.306;2024-03-08T02:38:22;96630.25;;;15.66;12.57
77077;BME280;66003;52.286;104.306;2024-03-08T02:40:51;96632.84;;;15.04;11.87
77077;BME280;66003;52.286;104.306;2024-03-08T02:43:19;96631.63;;;14.77;11.65
77077;BME280;66003;52.286;104.306;2024-03-08T02:45:46;96632.63;;;14.84;11.90
77077;BME280;66003;52.286;104.306;2024-03-08T02:48:14;96633.75;;;14.83;11.85
77077;BME280;66003;52.286;104.306;2024-03-08T02:50:41;96628.63;;;15.06;11.92
77077;BME280;66003;52.286;104.306;2024-03-08T02:53:09;96645.47;;;13.41;11.95
77077;BME280;66003;52.286;104.306;2024-03-08T02:55:36;96642.25;;;10.73;13.43
77077;BME280;66003;52.286;104.306;2024-03-08T02:58:03;96650.34;;;8.02;14.82
77077;BME280;66003;52.286;104.306;2024-03-08T03:00:30;96657.69;;;6.48;16.72
77077;BME280;66003;52.286;104.306;2024-03-08T03:02:57;96658.78;;;7.03;16.83
77077;BME280;66003;52.286;104.306;2024-03-08T03:05:24;96645.78;;;9.02;15.64
77077;BME280;66003;52.286;104.306;2024-03-08T03:07:51;96633.94;;;10.61;14.83
77077;BME280;66003;52.286;104.306;2024-03-08T03:10:18;96643.06;;;11.89;14.25
77077;BME280;66003;52.286;104.306;2024-03-08T03:12:45;96638.22;;;13.25;13.54
77077;BME280;66003;52.286;104.306;2024-03-08T03:15:12;96635.31;;;13.50;12.40
77077;BME280;66003;52.286;104.306;2024-03-08T03:17:39;96640.91;;;13.90;12.78
77077;BME280;66003;52.286;104.306;2024-03-08T03:20:08;96652.41;;;14.20;12.16
77077;BME280;66003;52.286;104.306;2024-03-08T03:22:39;96637.78;;;14.25;12.12
77077;BME280;66003;52.286;104.306;2024-03-08T03:25:07;96643.22;;;14.25;12.17
77077;BME280;66003;52.286;104.306;2024-03-08T03:27:36;96636.59;;;13.89;12.23
77077;BME280;66003;52.286;104.306;2024-03-08T03:30:04;96641.38;;;12.73;12.85
77077;BME280;66003;52.286;104.306;2024-03-08T03:32:50;96645.00;;;10.82;13.53
77077;BME280;66003;52.286;104.306;2024-03-08T03:35:18;96652.28;;;9.01;14.54
77077;BME280;66003;52.286;104.306;2024-03-08T03:37:47;96658.41;;;7.09;15.86
77077;BME280;66003;52.286;104.306;2024-03-08T03:40:34;96655.13;;;5.42;17.27
77077;BME280;66003;52.286;104.306;2024-03-08T03:43:01;96654.91;;;4.66;17.83
77077;BME280;66003;52.286;104.306;2024-03-08T03:45:29;96655.78;;;3.97;18.99
77077;BME280;66003;52.286;104.306;2024-03-08T03:47:55;96658.06;;;3.49;19.85
77077;BME280;66003;52.286;104.306;2024-03-08T03:50:22;96664.50;;;3.02;19.80
77077;BME280;66003;52.286;104.306;2024-03-08T03:52:49;96660.19;;;2.76;20.27
77077;BME280;66003;52.286;104.306;2024-03-08T03:55:16;96655.09;;;2.59;20.72
77077;BME280;66003;52.286;104.306;2024-03-08T03:57:42;96649.47;;;2.40;20.60
77077;BME280;66003;52.286;104.306;2024-03-08T04:00:09;96655.00;;;2.19;21.12
77077;BME280;66003;52.286;104.306;2024-03-08T04:02:40;96658.63;;;1.92;21.39
77077;BME280;66003;52.286;104.306;2024-03-08T04:05:08;96646.00;;;1.67;21.18
77077;BME280;66003;52.286;104.306;2024-03-08T04:07:35;96649.69;;;1.61;20.94
77077;BME280;66003;52.286;104.306;2024-03-08T04:10:02;96645.91;;;1.52;21.47
77077;BME280;66003;52.286;104.306;2024-03-08T04:12:30;96648.91;;;1.61;21.10
77077;BME280;66003;52.286;104.306;2024-03-08T04:14:57;96653.44;;;1.65;21.52
77077;BME280;66003;52.286;104.306;2024-03-08T04:17:23;96642.22;;;1.63;21.83
77077;BME280;66003;52.286;104.306;2024-03-08T04:19:53;96637.75;;;1.74;21.86
77077;BME280;66003;52.286;104.306;2024-03-08T04:22:20;96641.53;;;1.83;21.84
77077;BME280;66003;52.286;104.306;2024-03-08T04:24:46;96641.59;;;1.98;21.58
77077;BME280;66003;52.286;104.306;2024-03-08T04:27:13;96647.72;;;1.99;21.48
77077;BME280;66003;52.286;104.306;2024-03-08T04:29:42;96644.97;;;1.79;21.34
77077;BME280;66003;52.286;104.306;2024-03-08T04:32:10;96641.97;;;1.65;22.10
77077;BME280;66003;52.286;104.306;2024-03-08T04:34:39;96651.88;;;1.75;22.22
77077;BME280;66003;52.286;104.306;2024-03-08T04:37:05;96643.63;;;1.76;22.15
77077;BME280;66003;52.286;104.306;2024-03-08T04:39:32;96635.13;;;1.79;22.24
77077;BME280;66003;52.286;104.306;2024-03-08T04:42:00;96631.19;;;1.92;22.52
77077;BME280;66003;52.286;104.306;2024-03-08T04:44:30;96629.34;;;2.02;22.10
77077;BME280;66003;52.286;104.306;2024-03-08T04:46:57;96619.78;;;2.07;22.00
77077;BME280;66003;52.286;104.306;2024-03-08T04:49:23;96614.47;;;2.17;22.28
77077;BME280;66003;52.286;104.306;2024-03-08T04:51:50;96616.88;;;2.23;21.96
77077;BME280;66003;52.286;104.306;2024-03-08T04:54:16;96607.28;;;2.27;21.93
77077;BME280;66003;52.286;104.306;2024-03-08T04:56:42;96605.41;;;2.33;22.08
77077;BME280;66003;52.286;104.306;2024-03-08T04:59:08;96596.38;;;2.29;22.26
77077;BME280;66003;52.286;104.306;2024-03-08T05:01:34;96611.84;;;2.42;21.53
77077;BME280;66003;52.286;104.306;2024-03-08T05:04:04;96617.47;;;2.51;21.50
77077;BME280;66003;52.286;104.306;2024-03-08T05:06:31;96622.53;;;2.57;22.23
77077;BME280;66003;52.286;104.306;2024-03-08T05:08:58;96614.53;;;2.62;21.99
77077;BME280;66003;52.286;104.306;2024-03-08T05:11:25;96621.75;;;2.72;21.90
77077;BME280;66003;52.286;104.306;2024-03-08T05:13:51;96615.88;;;2.80;22.21
77077;BME280;66003;52.286;104.306;2024-03-08T05:16:17;96619.38;;;3.01;21.38
77077;BME280;66003;52.286;104.306;2024-03-08T05:18:43;96610.56;;;2.75;22.07
77077;BME280;66003;52.286;104.306;2024-03-08T05:21:09;96613.47;;;2.84;21.99
77077;BME280;66003;52.286;104.306;2024-03-08T05:23:36;96611.63;;;2.84;22.24
77077;BME280;66003;52.286;104.306;2024-03-08T05:26:04;96614.81;;;2.86;21.89
77077;BME280;66003;52.286;104.306;2024-03-08T05:28:30;96609.75;;;2.85;22.24
77077;BME280;66003;52.286;104.306;2024-03-08T05:30:56;96611.91;;;2.77;22.13
77077;BME280;66003;52.286;104.306;2024-03-08T05:33:25;96602.25;;;2.56;22.67
77077;BME280;66003;52.286;104.306;2024-03-08T05:35:57;96607.06;;;2.74;22.37
77077;BME280;66003;52.286;104.306;2024-03-08T05:38:24;96597.19;;;2.80;22.51
77077;BME280;66003;52.286;104.306;2024-03-08T05:40:51;96604.69;;;2.88;22.85
77077;BME280;66003;52.286;104.306;2024-03-08T05:43:17;96593.72;;;2.95;22.51
77077;BME280;66003;52.286;104.306;2024-03-08T05:45:48;96589.97;;;2.96;22.53
77077;BME280;66003;52.286;104.306;2024-03-08T05:48:14;96591.59;;;3.12;22.12
77077;BME280;66003;52.286;104.306;2024-03-08T05:50:40;96599.03;;;3.05;22.34
77077;BME280;66003;52.286;104.306;2024-03-08T05:53:06;96591.03;;;3.05;22.75
77077;BME280;66003;52.286;104.306;2024-03-08T05:55:32;96590.25;;;3.09;22.13
77077;BME280;66003;52.286;104.306;2024-03-08T05:58:02;96587.31;;;3.01;22.87
77077;BME280;66003;52.286;104.306;2024-03-08T06:00:28;96581.72;;;3.02;22.86
77077;BME280;66003;52.286;104.306;2024-03-08T06:02:54;96589.16;;;3.05;22.83
77077;BME280;66003;52.286;104.306;2024-03-08T06:05:21;96591.03;;;3.10;22.94
77077;BME280;66003;52.286;104.306;2024-03-08T06:07:49;96583.00;;;3.15;22.93
77077;BME280;66003;52.286;104.306;2024-03-08T06:10:15;96578.50;;;3.10;23.20
77077;BME280;66003;52.286;104.306;2024-03-08T06:12:43;96582.50;;;3.13;22.99
77077;BME280;66003;52.286;104.306;2024-03-08T06:15:11;96580.34;;;3.05;23.08
77077;BME280;66003;52.286;104.306;2024-03-08T06:17:41;96574.22;;;3.04;23.32
77077;BME280;66003;52.286;104.306;2024-03-08T06:20:07;96573.41;;;3.04;23.33
77077;BME280;66003;52.286;104.306;2024-03-08T06:22:39;96568.09;;;3.09;23.42
77077;BME280;66003;52.286;104.306;2024-03-08T06:25:11;96568.31;;;3.18;23.08
77077;BME280;66003;52.286;104.306;2024-03-08T06:27:42;96571.56;;;3.09;23.23
77077;BME280;66003;52.286;104.306;2024-03-08T06:30:08;96573.41;;;3.29;23.49
77077;BME280;66003;52.286;104.306;2024-03-08T06:32:38;96564.59;;;3.08;23.38
77077;BME280;66003;52.286;104.306;2024-03-08T06:35:05;96571.84;;;3.03;23.81
77077;BME280;66003;52.286;104.306;2024-03-08T06:37:35;96575.59;;;2.87;24.10
77077;BME280;66003;52.286;104.306;2024-03-08T06:40:02;96571.31;;;3.01;23.79
77077;BME280;66003;52.286;104.306;2024-03-08T06:42:34;96563.28;;;3.06;23.91
77077;BME280;66003;52.286;104.306;2024-03-08T06:45:02;96563.28;;;3.06;23.66
77077;BME280;66003;52.286;104.306;2024-03-08T06:47:32;96563.28;;;3.01;23.92
77077;BME280;66003;52.286;104.306;2024-03-08T06:49:59;96569.69;;;3.10;23.32
77077;BME280;66003;52.286;104.306;2024-03-08T06:52:25;96561.44;;;3.01;23.81
77077;BME280;66003;52.286;104.306;2024-03-08T06:54:52;96559.00;;;3.05;24.01
77077;BME280;66003;52.286;104.306;2024-03-08T06:57:18;96563.81;;;3.08;24.03
77077;BME280;66003;52.286;104.306;2024-03-08T06:59:48;96560.06;;;3.09;23.84
77077;BME280;66003;52.286;104.306;2024-03-08T07:02:14;96560.34;;;3.12;23.92
77077;BME280;66003;52.286;104.306;2024-03-08T07:04:41;96556.34;;;3.20;24.11
77077;BME280;66003;52.286;104.306;2024-03-08T07:07:07;96562.22;;;3.22;24.05
77077;BME280;66003;52.286;104.306;2024-03-08T07:09:36;96557.41;;;3.24;23.64
77077;BME280;66003;52.286;104.306;2024-03-08T07:12:03;96562.97;;;3.28;23.59
77077;BME280;66003;52.286;104.306;2024-03-08T07:14:29;96563.25;;;3.36;23.57
77077;BME280;66003;52.286;104.306;2024-03-08T07:16:57;96552.00;;;3.39;23.71
77077;BME280;66003;52.286;104.306;2024-03-08T07:19:23;96554.94;;;3.43;23.83
77077;BME280;66003;52.286;104.306;2024-03-08T07:21:49;96554.41;;;3.46;23.42
77077;BME280;66003;52.286;104.306;2024-03-08T07:24:16;96554.44;;;3.36;23.47
77077;BME280;66003;52.286;104.306;2024-03-08T07:27:06;96557.06;;;3.46;23.49
77077;BME280;66003;52.286;104.306;2024-03-08T07:29:35;96546.38;;;3.46;23.16
77077;BME280;66003;52.286;104.306;2024-03-08T07:32:01;96561.06;;;3.48;23.29
77077;BME280;66003;52.286;104.306;2024-03-08T07:34:45;96546.88;;;3.53;23.27
77077;BME280;66003;52.286;104.306;2024-03-08T07:37:12;96551.06;;;3.74;23.28
77077;BME280;66003;52.286;104.306;2024-03-08T07:39:39;96541.69;;;3.77;23.14
77077;BME280;66003;52.286;104.306;2024-03-08T07:42:05;96543.94;;;3.60;23.30
77077;BME280;66003;52.286;104.306;2024-03-08T07:44:31;96539.94;;;3.57;23.51
77077;BME280;66003;52.286;104.306;2024-03-08T07:46:58;96542.88;;;3.56;23.50
77077;BME280;66003;52.286;104.306;2024-03-08T07:49:25;96540.47;;;3.59;23.28
77077;BME280;66003;52.286;104.306;2024-03-08T07:51:51;96540.41;;;3.64;23.32
77077;BME280;66003;52.286;104.306;2024-03-08T07:54:17;96538.00;;;3.73;23.48
77077;BME280;66003;52.286;104.306;2024-03-08T07:56:43;96539.56;;;3.74;23.58
77077;BME280;66003;52.286;104.306;2024-03-08T07:59:10;96537.47;;;3.71;23.54
77077;BME280;66003;52.286;104.306;2024-03-08T08:01:37;96541.63;;;3.97;23.26
77077;BME280;66003;52.286;104.306;2024-03-08T08:04:03;96536.88;;;3.84;22.95
77077;BME280;66003;52.286;104.306;2024-03-08T08:06:30;96524.34;;;3.74;23.03
77077;BME280;66003;52.286;104.306;2024-03-08T08:09:00;96536.34;;;3.77;22.84
77077;BME280;66003;52.286;104.306;2024-03-08T08:11:27;96533.69;;;3.77;23.67
77077;BME280;66003;52.286;104.306;2024-03-08T08:13:56;96530.19;;;3.81;23.42
77077;BME280;66003;52.286;104.306;2024-03-08T08:16:25;96528.00;;;3.94;23.17
77077;BME280;66003;52.286;104.306;2024-03-08T08:18:52;96531.25;;;3.85;23.37
77077;BME280;66003;52.286;104.306;2024-03-08T08:21:19;96521.31;;;3.91;23.44
77077;BME280;66003;52.286;104.306;2024-03-08T08:23:45;96526.13;;;3.94;23.26
77077;BME280;66003;52.286;104.306;2024-03-08T08:26:12;96519.13;;;3.98;23.54
77077;BME280;66003;52.286;104.306;2024-03-08T08:28:38;96516.44;;;4.03;23.55
77077;BME280;66003;52.286;104.306;2024-03-08T08:31:04;96518.28;;;4.08;23.10
77077;BME280;66003;52.286;104.306;2024-03-08T08:33:30;96520.66;;;4.09;23.20
77077;BME280;66003;52.286;104.306;2024-03-08T08:35:56;96523.84;;;4.16;22.93
77077;BME280;66003;52.286;104.306;2024-03-08T08:38:24;96512.28;;;4.21;22.67
77077;BME280;66003;52.286;104.306;2024-03-08T08:40:50;96516.00;;;4.30;22.92
77077;BME280;66003;52.286;104.306;2024-03-08T08:43:16;96513.06;;;4.27;23.05
77077;BME280;66003;52.286;104.306;2024-03-08T08:45:43;96516.56;;;4.22;22.84
77077;BME280;66003;52.286;104.306;2024-03-08T08:48:09;96519.53;;;4.20;23.18
77077;BME280;66003;52.286;104.306;2024-03-08T08:50:36;96511.28;;;4.12;23.16
77077;BME280;66003;52.286;104.306;2024-03-08T08:53:02;96522.25;;;4.10;23.28
77077;BME280;66003;52.286;104.306;2024-03-08T08:55:29;96516.41;;;4.08;23.02
77077;BME280;66003;52.286;104.306;2024-03-08T08:57:56;96526.00;;;4.09;23.18
77077;BME280;66003;52.286;104.306;2024-03-08T09:00:23;96514.81;;;4.07;23.19
77077;BME280;66003;52.286;104.306;2024-03-08T09:02:52;96515.03;;;4.11;22.92
77077;BME280;66003;52.286;104.306;2024-03-08T09:05:21;96512.09;;;4.12;22.96
77077;BME280;66003;52.286;104.306;2024-03-08T09:07:49;96517.44;;;4.12;22.85
77077;BME280;66003;52.286;104.306;2024-03-08T09:10:16;96517.22;;;4.09;23.03
77077;BME280;66003;52.286;104.306;2024-03-08T09:12:42;96513.75;;;4.08;23.11
77077;BME280;66003;52.286;104.306;2024-03-08T09:15:08;96515.88;;;4.06;23.14
77077;BME280;66003;52.286;104.306;2024-03-08T09:17:37;96512.69;;;3.99;23.37
77077;BME280;66003;52.286;104.306;2024-03-08T09:20:07;96514.63;;;3.94;23.41
77077;BME280;66003;52.286;104.306;2024-03-08T09:22:44;96507.34;;;3.99;23.18
77077;BME280;66003;52.286;104.306;2024-03-08T09:25:11;96513.09;;;3.82;23.51
77077;BME280;66003;52.286;104.306;2024-03-08T09:27:37;96504.06;;;3.68;23.58
77077;BME280;66003;52.286;104.306;2024-03-08T09:30:06;96508.06;;;3.66;23.86
77077;BME280;66003;52.286;104.306;2024-03-08T09:32:33;96508.34;;;3.64;24.03
77077;BME280;66003;52.286;104.306;2024-03-08T09:34:59;96512.63;;;3.65;23.83
77077;BME280;66003;52.286;104.306;2024-03-08T09:37:27;96514.25;;;3.61;23.86
77077;BME280;66003;52.286;104.306;2024-03-08T09:40:00;96515.59;;;3.59;23.96
77077;BME280;66003;52.286;104.306;2024-03-08T09:42:30;96516.16;;;3.50;24.31
77077;BME280;66003;52.286;104.306;2024-03-08T09:44:58;96515.66;;;3.48;24.17
77077;BME280;66003;52.286;104.306;2024-03-08T09:47:25;96510.06;;;3.45;24.13
77077;BME280;66003;52.286;104.306;2024-03-08T09:49:55;96515.13;;;3.41;24.03
77077;BME280;66003;52.286;104.306;2024-03-08T09:52:21;96512.22;;;3.33;24.10
77077;BME280;66003;52.286;104.306;2024-03-08T09:54:47;96508.75;;;3.27;23.88
77077;BME280;66003;52.286;104.306;2024-03-08T09:57:15;96516.81;;;3.22;23.48
77077;BME280;66003;52.286;104.306;2024-03-08T09:59:41;96511.72;;;3.15;24.01
77077;BME280;66003;52.286;104.306;2024-03-08T10:02:15;96520.00;;;3.09;24.12
77077;BME280;66003;52.286;104.306;2024-03-08T10:04:42;96520.31;;;3.02;24.31
77077;BME280;66003;52.286;104.306;2024-03-08T10:07:08;96516.31;;;2.95;24.09
77077;BME280;66003;52.286;104.306;2024-03-08T10:09:34;96510.72;;;2.86;24.70
77077;BME280;66003;52.286;104.306;2024-03-08T10:12:02;96518.47;;;2.83;24.53
77077;BME280;66003;52.286;104.306;2024-03-08T10:14:28;96516.03;;;2.96;24.16
77077;BME280;66003;52.286;104.306;2024-03-08T10:16:54;96519.81;;;2.75;24.47
77077;BME280;66003;52.286;104.306;2024-03-08T10:19:26;96523.28;;;2.65;24.63
77077;BME280;66003;52.286;104.306;2024-03-08T10:21:53;96527.28;;;2.58;24.86
77077;BME280;66003;52.286;104.306;2024-03-08T10:24:20;96518.75;;;2.51;24.93
77077;BME280;66003;52.286;104.306;2024-03-08T10:26:46;96523.84;;;2.42;24.94
77077;BME280;66003;52.286;104.306;2024-03-08T10:29:13;96522.50;;;2.29;25.14
77077;BME280;66003;52.286;104.306;2024-03-08T10:31:43;96521.69;;;2.19;25.38
77077;BME280;66003;52.286;104.306;2024-03-08T10:34:12;96516.06;;;2.05;25.39
77077;BME280;66003;52.286;104.306;2024-03-08T10:36:39;96519.53;;;1.95;25.55
77077;BME280;66003;52.286;104.306;2024-03-08T10:39:35;96514.47;;;1.94;25.67
77077;BME280;66003;52.286;104.306;2024-03-08T10:42:04;96501.88;;;1.74;26.51
77077;BME280;66003;52.286;104.306;2024-03-08T10:44:40;96512.25;;;1.65;27.18
77077;BME280;66003;52.286;104.306;2024-03-08T10:47:17;96519.44;;;1.60;27.20
77077;BME280;66003;52.286;104.306;2024-03-08T10:49:54;96515.66;;;1.51;27.57
77077;BME280;66003;52.286;104.306;2024-03-08T10:52:21;96508.94;;;1.38;27.43
77077;BME280;66003;52.286;104.306;2024-03-08T10:54:52;96519.78;;;1.26;27.76
77077;BME280;66003;52.286;104.306;2024-03-08T10:57:26;96519.72;;;1.16;28.34
77077;BME280;66003;52.286;104.306;2024-03-08T10:59:53;96517.00;;;1.01;28.86
77077;BME280;66003;52.286;104.306;2024-03-08T11:02:21;96524.94;;;0.96;28.66
77077;BME280;66003;52.286;104.306;2024-03-08T11:04:51;96532.13;;;0.90;29.18
77077;BME280;66003;52.286;104.306;2024-03-08T11:07:27;96532.88;;;0.86;29.08
77077;BME280;66003;52.286;104.306;2024-03-08T11:09:55;96534.19;;;0.83;28.32
77077;BME280;66003;52.286;104.306;2024-03-08T11:12:27;96534.94;;;0.74;29.30
77077;BME280;66003;52.286;104.306;2024-03-08T11:15:12;96531.97;;;0.70;29.11
77077;BME280;66003;52.286;104.306;2024-03-08T11:17:47;96521.50;;;0.53;29.08
77077;BME280;66003;52.286;104.306;2024-03-08T11:20:16;96540.06;;;0.48;29.65
77077;BME280;66003;52.286;104.306;2024-03-08T11:23:04;96538.44;;;0.47;28.52
77077;BME280;66003;52.286;104.306;2024-03-08T11:25:39;96543.34;;;0.29;28.90
77077;BME280;66003;52.286;104.306;2024-03-08T11:28:16;96542.22;;;0.19;28.62
77077;BME280;66003;52.286;104.306;2024-03-08T11:33:33;96542.00;;;-0.01;28.89
77077;BME280;66003;52.286;104.306;2024-03-08T11:36:22;96547.78;;;-0.09;29.03
77077;BME280;66003;52.286;104.306;2024-03-08T11:38:50;96555.91;;;-0.16;29.40
77077;BME280;66003;52.286;104.306;2024-03-08T11:41:20;96556.63;;;-0.25;29.44
77077;BME280;66003;52.286;104.306;2024-03-08T11:43:47;96563.19;;;-0.33;29.80
77077;BME280;66003;52.286;104.306;2024-03-08T11:46:16;96562.59;;;-0.40;29.68
77077;BME280;66003;52.286;104.306;2024-03-08T11:48:44;96546.72;;;-0.57;29.73
77077;BME280;66003;52.286;104.306;2024-03-08T11:51:15;96551.47;;;-0.59;29.42
77077;BME280;66003;52.286;104.306;2024-03-08T11:53:45;96550.09;;;-0.61;29.40
77077;BME280;66003;52.286;104.306;2024-03-08T11:56:13;96551.66;;;-0.65;29.16
77077;BME280;66003;52.286;104.306;2024-03-08T11:58:53;96554.13;;;-0.59;28.71
77077;BME280;66003;52.286;104.306;2024-03-08T12:01:23;96549.97;;;-0.71;29.17
77077;BME280;66003;52.286;104.306;2024-03-08T12:03:57;96552.34;;;-0.75;28.75
77077;BME280;66003;52.286;104.306;2024-03-08T12:06:27;96551.66;;;-0.87;29.25
77077;BME280;66003;52.286;104.306;2024-03-08T12:09:08;96552.16;;;-0.85;28.66
77077;BME280;66003;52.286;104.306;2024-03-08T12:11:36;96558.16;;;-0.95;28.61
77077;BME280;66003;52.286;104.306;2024-03-08T12:14:03;96548.44;;;-1.06;28.91
77077;BME280;66003;52.286;104.306;2024-03-08T12:16:30;96550.19;;;-0.95;28.24
77077;BME280;66003;52.286;104.306;2024-03-08T12:18:56;96556.56;;;-1.12;28.92
77077;BME280;66003;52.286;104.306;2024-03-08T12:21:26;96550.78;;;-1.26;29.57
77077;BME280;66003;52.286;104.306;2024-03-08T12:24:08;96556.66;;;-1.24;29.32
77077;BME280;66003;52.286;104.306;2024-03-08T12:26:36;96547.09;;;-1.42;29.56
77077;BME280;66003;52.286;104.306;2024-03-08T12:29:23;96559.16;;;-1.34;29.84
77077;BME280;66003;52.286;104.306;2024-03-08T12:31:55;96564.28;;;-1.44;29.72
77077;BME280;66003;52.286;104.306;2024-03-08T12:34:24;96559.31;;;-1.58;30.11
77077;BME280;66003;52.286;104.306;2024-03-08T12:36:52;96556.56;;;-1.63;29.75
77077;BME280;66003;52.286;104.306;2024-03-08T12:42:32;96553.44;;;-1.93;30.39
77077;BME280;66003;52.286;104.306;2024-03-08T12:44:58;96552.00;;;-2.12;31.84
77077;BME280;66003;52.286;104.306;2024-03-08T12:47:25;96553.16;;;-2.08;30.48
77077;BME280;66003;52.286;104.306;2024-03-08T12:49:54;96541.66;;;-2.14;30.53
77077;BME280;66003;52.286;104.306;2024-03-08T12:52:20;96552.88;;;-2.23;30.88
77077;BME280;66003;52.286;104.306;2024-03-08T12:54:46;96549.63;;;-2.25;30.80
77077;BME280;66003;52.286;104.306;2024-03-08T12:57:13;96543.50;;;-2.43;31.60
77077;BME280;66003;52.286;104.306;2024-03-08T12:59:40;96540.63;;;-2.41;30.79